createdAt,value
2023-02-21T00:01:45.263Z,19
2023-02-21T00:07:37.569Z,19
2023-02-21T00:12:44.277Z,18
2023-02-21T00:17:44.656Z,20
2023-02-21T00:22:49.917Z,21
2023-02-21T00:28:37.548Z,22
2023-02-21T00:33:44.263Z,23
2023-02-21T00:38:44.508Z,21
2023-02-21T00:43:45.062Z,20
2023-02-21T00:49:37.429Z,21
2023-02-21T00:54:37.512Z,21
2023-02-21T00:59:37.533Z,19
2023-02-21T01:04:44.889Z,21
2023-02-21T01:10:37.515Z,24
2023-02-21T01:15:37.572Z,22
2023-02-21T01:20:37.507Z,24
2023-02-21T01:26:37.482Z,24
2023-02-21T01:31:44.279Z,24
2023-02-21T01:36:44.388Z,24
2023-02-21T01:41:45.137Z,25
2023-02-21T01:47:37.532Z,22
2023-02-21T01:52:45.780Z,22
2023-02-21T01:58:37.463Z,22
2023-02-21T02:03:37.539Z,21
2023-02-21T02:08:44.266Z,24
2023-02-21T02:13:45.017Z,25
2023-02-21T02:19:37.553Z,25
2023-02-21T02:24:44.279Z,22
2023-02-21T02:30:37.525Z,24
2023-02-21T02:35:44.339Z,24
2023-02-21T02:40:44.714Z,26
2023-02-21T02:45:44.864Z,26
2023-02-21T02:50:44.884Z,27
2023-02-21T02:56:37.520Z,28
2023-02-21T03:01:45.074Z,27
2023-02-21T03:07:37.438Z,25
2023-02-21T03:12:37.486Z,25
2023-02-21T03:17:37.471Z,25
2023-02-21T03:22:37.478Z,28
2023-02-21T03:27:45.010Z,27
2023-02-21T03:33:37.516Z,28
2023-02-21T03:38:44.942Z,26
2023-02-21T03:44:37.502Z,25
2023-02-21T03:49:44.446Z,28
2023-02-21T03:54:45.037Z,24
2023-02-21T03:59:44.943Z,24
2023-02-21T04:05:37.446Z,26
2023-02-21T04:10:52.172Z,27
2023-02-21T04:16:37.539Z,27
2023-02-21T04:21:44.704Z,30
2023-02-21T04:27:37.477Z,31
2023-02-21T04:32:44.390Z,28
2023-02-21T04:37:44.594Z,32
2023-02-21T04:42:44.971Z,28
2023-02-21T04:48:37.514Z,28
2023-02-21T04:53:37.522Z,29
2023-02-21T04:58:45.992Z,27
2023-02-21T05:04:37.652Z,26
2023-02-21T05:09:44.302Z,28
2023-02-21T05:15:37.519Z,27
2023-02-21T05:20:37.527Z,25
2023-02-21T05:25:37.541Z,23
2023-02-21T05:30:44.520Z,25
2023-02-21T05:36:37.544Z,27
2023-02-21T05:41:44.788Z,28
2023-02-21T05:47:37.485Z,25
2023-02-21T05:52:37.530Z,25
2023-02-21T05:57:37.546Z,24
2023-02-21T06:02:44.601Z,25
2023-02-21T06:07:44.788Z,25
2023-02-21T06:13:37.476Z,24
2023-02-21T06:18:37.511Z,24
2023-02-21T06:23:37.555Z,24
2023-02-21T06:28:45.209Z,23
2023-02-21T06:34:37.442Z,23
2023-02-21T06:39:37.498Z,22
2023-02-21T06:44:37.511Z,21
2023-02-21T06:49:44.388Z,22
2023-02-21T06:54:44.413Z,21
2023-02-21T06:59:44.767Z,19
2023-02-21T07:04:44.863Z,18
2023-02-21T07:10:37.494Z,18
2023-02-21T07:15:37.524Z,17
2023-02-21T07:20:44.393Z,18
2023-02-21T07:26:37.556Z,17
2023-02-21T07:31:44.865Z,16
2023-02-21T07:37:37.445Z,17
2023-02-21T07:42:37.532Z,18
2023-02-21T07:47:37.592Z,26
2023-02-21T07:52:45.103Z,16
2023-02-21T07:58:37.646Z,16
2023-02-21T08:03:37.524Z,18
2023-02-21T08:08:44.258Z,17
2023-02-21T08:14:37.446Z,17
2023-02-21T08:19:37.522Z,18
2023-02-21T08:24:44.752Z,17
2023-02-21T08:30:37.559Z,16
2023-02-21T08:35:37.506Z,18
2023-02-21T08:40:44.755Z,19
2023-02-21T08:46:37.542Z,19
2023-02-21T08:51:37.523Z,18
2023-02-21T08:56:45.009Z,17
2023-02-21T09:02:37.517Z,20
2023-02-21T09:07:44.286Z,20
2023-02-21T09:13:37.501Z,19
2023-02-21T09:18:37.519Z,20
2023-02-21T09:23:37.512Z,19
2023-02-21T09:28:37.528Z,19
2023-02-21T09:33:37.561Z,19
2023-02-21T09:38:44.745Z,18
2023-02-21T09:44:37.449Z,16
2023-02-21T09:49:37.492Z,16
2023-02-21T09:54:37.540Z,15
2023-02-21T09:59:44.847Z,15
2023-02-21T10:05:37.517Z,16
2023-02-21T10:10:44.393Z,15
2023-02-21T10:16:37.591Z,14
2023-02-21T10:21:37.519Z,14
2023-02-21T10:26:44.293Z,13
2023-02-21T10:31:45.063Z,13
2023-02-21T10:36:44.966Z,13
2023-02-21T10:42:37.544Z,13
2023-02-21T10:47:37.509Z,14
2023-02-21T10:52:44.347Z,14
2023-02-21T10:58:37.598Z,14
2023-02-21T11:03:44.477Z,14
2023-02-21T11:08:44.834Z,14
2023-02-21T11:14:37.532Z,12
2023-02-21T11:19:37.523Z,13
2023-02-21T11:24:44.582Z,13
2023-02-21T11:29:44.709Z,13
2023-02-21T11:34:44.734Z,13
2023-02-21T11:40:37.539Z,12
2023-02-21T11:45:44.381Z,12
2023-02-21T11:50:44.947Z,12
2023-02-21T11:56:37.481Z,13
2023-02-21T12:01:37.567Z,11
2023-02-21T12:06:37.543Z,11
2023-02-21T12:11:44.691Z,12
2023-02-21T12:17:37.542Z,11
2023-02-21T12:22:37.549Z,11
2023-02-21T12:27:44.362Z,10
2023-02-21T12:32:44.690Z,9
2023-02-21T12:38:39.450Z,9
2023-02-21T12:43:37.548Z,9
2023-02-21T12:48:44.346Z,10
2023-02-21T12:53:47.833Z,10
2023-02-21T12:59:37.626Z,9
2023-02-21T13:04:47.866Z,9
2023-02-21T13:09:47.863Z,9
2023-02-21T13:14:47.876Z,9
2023-02-21T13:20:37.569Z,9
2023-02-21T13:25:37.593Z,9
2023-02-21T13:30:47.984Z,9
2023-02-21T13:35:47.937Z,9
2023-02-21T13:41:37.617Z,10
2023-02-21T13:46:37.656Z,9
2023-02-21T13:51:47.917Z,9
2023-02-21T13:57:37.650Z,8
2023-02-21T14:02:47.891Z,9
2023-02-21T14:07:47.930Z,8
2023-02-21T14:13:37.568Z,8
2023-02-21T14:18:37.619Z,8
2023-02-21T14:23:47.928Z,8
2023-02-21T14:29:37.685Z,8
2023-02-21T14:34:47.862Z,9
2023-02-21T14:39:47.937Z,9
2023-02-21T14:45:37.625Z,9
2023-02-21T14:50:47.924Z,9
2023-02-21T14:56:37.589Z,9
2023-02-21T15:01:37.598Z,8
2023-02-21T15:06:37.623Z,8
2023-02-21T15:11:47.887Z,7
2023-02-21T15:17:37.599Z,7
2023-02-21T15:22:47.839Z,6
2023-02-21T15:27:48.431Z,6
2023-02-21T15:33:37.557Z,8
2023-02-21T15:38:47.929Z,8
2023-02-21T15:44:37.661Z,7
2023-02-21T15:49:47.841Z,7
2023-02-21T15:54:47.908Z,9
2023-02-21T15:59:47.947Z,10
2023-02-21T16:05:37.633Z,11
2023-02-21T16:10:47.908Z,13
2023-02-21T16:16:37.670Z,16
2023-02-21T16:21:47.920Z,16
2023-02-21T16:26:47.918Z,16
2023-02-21T16:31:48.059Z,17
2023-02-21T16:37:37.585Z,17
2023-02-21T16:42:37.632Z,18
2023-02-21T16:47:47.940Z,17
2023-02-21T16:52:47.920Z,17
2023-02-21T16:57:47.941Z,18
2023-02-21T17:03:37.592Z,19
2023-02-21T17:08:37.655Z,19
2023-02-21T17:13:37.597Z,20
2023-02-21T17:18:47.892Z,20
2023-02-21T17:23:47.926Z,19
2023-02-21T17:29:37.594Z,21
2023-02-21T17:34:48.016Z,22
2023-02-21T17:40:37.719Z,19
2023-02-21T17:45:37.757Z,22
2023-02-21T17:50:47.934Z,21
2023-02-21T17:56:37.618Z,24
2023-02-21T18:01:37.634Z,24
2023-02-21T18:06:37.689Z,24
2023-02-21T18:11:37.654Z,21
2023-02-21T18:16:37.664Z,22
2023-02-21T18:21:47.968Z,26
2023-02-21T18:26:47.997Z,25
2023-02-21T18:32:37.693Z,23
2023-02-21T18:37:37.701Z,25
2023-02-21T18:42:47.901Z,26
2023-02-21T18:47:47.949Z,28
2023-02-21T18:53:37.696Z,26
2023-02-21T18:58:47.950Z,26
2023-02-21T19:04:37.680Z,25
2023-02-21T19:09:47.972Z,26
2023-02-21T19:15:37.604Z,37
2023-02-21T19:20:37.648Z,31
2023-02-21T19:25:37.689Z,30
2023-02-21T19:30:47.948Z,28
2023-02-21T19:36:37.774Z,31
2023-02-21T19:41:47.977Z,30
2023-02-21T19:47:37.704Z,27
2023-02-21T19:52:37.687Z,29
2023-02-21T19:57:48.002Z,29
2023-02-21T20:03:37.658Z,32
2023-02-21T20:08:47.959Z,29
2023-02-21T20:14:37.619Z,32
2023-02-21T20:19:37.634Z,31
2023-02-21T20:24:47.883Z,33
2023-02-21T20:29:47.916Z,34
2023-02-21T20:34:47.945Z,32
2023-02-21T20:40:37.678Z,37
2023-02-21T20:45:37.730Z,40
2023-02-21T20:50:47.963Z,37
2023-02-21T20:56:37.641Z,33
2023-02-21T21:01:37.723Z,35
2023-02-21T21:06:37.654Z,33
2023-02-21T21:11:37.716Z,37
2023-02-21T21:16:47.917Z,37
2023-02-21T21:21:47.985Z,37
2023-02-21T21:27:37.687Z,38
2023-02-21T21:32:47.935Z,36
2023-02-21T21:37:47.979Z,38
2023-02-21T21:43:37.664Z,38
2023-02-21T21:48:37.700Z,38
2023-02-21T21:53:47.943Z,41
2023-02-21T21:58:47.970Z,43
2023-02-21T22:04:37.686Z,39
2023-02-21T22:09:47.893Z,38
2023-02-21T22:14:47.950Z,37
2023-02-21T22:20:37.696Z,35
2023-02-21T22:25:47.961Z,34
2023-02-21T22:31:37.662Z,48
2023-02-21T22:36:37.666Z,39
2023-02-21T22:41:49.046Z,38
2023-02-21T22:47:37.596Z,30
2023-02-21T22:52:37.637Z,35
2023-02-21T22:57:37.672Z,37
2023-02-21T23:02:48.038Z,34
2023-02-21T23:07:47.975Z,34
2023-02-21T23:12:47.984Z,31
2023-02-21T23:18:37.669Z,29
2023-02-21T23:23:37.703Z,30
2023-02-21T23:28:47.948Z,29
2023-02-21T23:33:47.995Z,32
2023-02-21T23:39:37.702Z,29
2023-02-21T23:44:47.938Z,31
2023-02-21T23:49:47.987Z,31
2023-02-21T23:55:37.652Z,26
